Kinder, Missouri
Current Conditions -  °F | °C
As of 9:02 AM on Monday 22 Dec 2014 (Local Time) from KPOF Reporting Station
Moderate Rain Moderate Rain  
Wind Chill: 42°   Ceiling: 300
Heat Index: 47°   Visibility: 2mi
Dew Point: 44°   Wind: 12mph
Humidity: 90%   Direction: 150°SSE
Pressure: 29.76"   Gusts: NA
Location:  36.9506°N, 90.1582°W
Report Text: KPOF 221502Z AUTO 15010KT 2SM RA BR OVC003 08/07 A2976 RMK AO2 P0002 T00830067
Loading
Personal Weather Stations






























Interactive Weather Map New forecast layout! Learn more

10-Day Weather Forecast

Advertisements
Track Severe Weather on mobile